Mayo Airport
CYMA : rendu visible

Aérodrome :











RETROUVEZ-NOUS SUR...

 
LOGIN :

S'inscrire | Disclaimer

   EN    FR    IT 

 









Légende :    VFR   VFR Marginal   IFR   IFR Intensif   IFR Très Intensif
Visi : 
Plafond : 
>= 8 km
>= 3000ft
5 à 8 km
1000 à 3000 ft
1500m à 5 km
500 à 1000 ft
800 à 1500m
200 à 500 ft
< 800m
< 200 ft
Symboles :   Orages  Brouillard  Fortes neiges  Fortes précipitations  Vent > 20 kt






- Altitude de l'aérodrome : 1653 ft
- Code IATA : YMA


CYMA - Mayo

DERNIER METAR :
  • 121600Z 23005KT 190V280 20SM FEW018 SCT028TCU BKN230 15/10 A2976 RMK SC2TCU1CI2 SLP092 DENSITY ALT 2200FT

METARs EXPIRÉS :
  • 121500Z 21004KT 170V240 20SM FEW005 SCT045TCU BKN100 BKN230 13/11 A2976 RMK SF2TCU2AC1CI2 SLP091 DENSITY ALT 2000FT
  • 121400Z 19003KT 180V240 20SM FEW010 SCT045 BKN230 12/10 A2975 RMK ST2SC2CI3 SLP089 DENSITY ALT 1900FT

TAF TAF CYMA
Valide du 12 à 12h jusqu'au 13 à 00h UTC


121138Z 1212/1224 VRB03KT P6SM SCT010 BKN040
TEMPO 1212/1218 5SM -SHRA BR BKN008 OVC040
FM121800 VRB03KT P6SM SCT020 BKN060
TEMPO 1218/1220 5SM -SHRA BR BKN020
FM122000 25007KT P6SM SCT020 BKN060
TEMPO 1220/1224 5SM -SHRA VCTS BR BKN020CB RMK NXT FCST BY 121800Z
FIR CZEG / Amérique du Nord



MET'MAP, la Météo Aéronautique d'un coup d'oeil ! - Copyright ORBIFLY Décembre 2007 - Disclaimer

ORBIFLY MET'MAP TEAM :

Programmation & Développement : Alexandra Zaïnal
Sur une idée originale de : Baudouin d'Aumeries
Assistance à la programmation : Marc-Olivier Méhu
Soutien technique & logistique : Manuel Goepfert

Contact : metmap@orbifly.com




SOURCES & CREDITS :

   NOAA       Earth
Advisory